Time;durP1;ratioP1;P1;durP2;ratioP2;P2;SDS_P1;SDS_P2;PMS_P1;PMS_P2;Temp;Humidity;BMP_temperature;BMP_pressure;BME280_temperature;BME280_humidity;BME280_pressure;Samples;Min_cycle;Max_cycle;Signal;HPM_P1;HPM_P2
2023/10/17 00:00:53;;;;;;;6.70;4.95;;;;;;;6.91;100.00;101868.53;5117045;27;20035;-87
2023/10/17 00:03:23;;;;;;;13.38;5.15;;;;;;;6.88;100.00;101867.03;5116987;27;20038;-86
2023/10/17 00:05:49;;;;;;;10.45;5.40;;;;;;;6.85;100.00;101868.19;5100299;27;20054;-86
2023/10/17 00:08:18;;;;;;;12.50;5.50;;;;;;;6.82;100.00;101875.75;5116855;27;20066;-87
2023/10/17 00:10:46;;;;;;;10.70;5.10;;;;;;;6.77;100.00;101868.19;5116450;27;20028;-87
2023/10/17 00:15:51;;;;;;;11.77;5.63;;;;;;;6.70;100.00;101867.16;5135497;27;20038;-87
2023/10/17 00:18:18;;;;;;;8.15;4.90;;;;;;;6.69;100.00;101860.09;5100173;27;20041;-87
2023/10/17 00:20:44;;;;;;;9.00;5.35;;;;;;;6.67;100.00;101854.84;5135081;27;20124;-87
2023/10/17 00:23:14;;;;;;;10.13;4.80;;;;;;;6.66;100.00;101855.84;5116634;27;20094;-87
2023/10/17 00:25:45;;;;;;;14.73;4.88;;;;;;;6.66;100.00;101861.25;5100371;27;20143;-88
2023/10/17 00:28:11;;;;;;;14.10;4.90;;;;;;;6.65;100.00;101856.03;5116939;27;20039;-87
2023/10/17 00:30:38;;;;;;;11.80;4.90;;;;;;;6.64;100.00;101854.31;5134596;27;20115;-87
2023/10/17 00:33:09;;;;;;;8.88;5.10;;;;;;;6.66;100.00;101847.75;5134977;27;20035;-87
2023/10/17 00:35:38;;;;;;;9.95;5.28;;;;;;;6.70;100.00;101845.56;5099660;27;20035;-87
2023/10/17 00:38:08;;;;;;;10.93;5.22;;;;;;;6.70;100.00;101842.03;5135082;27;20046;-87
2023/10/17 00:43:14;;;;;;;9.70;5.20;;;;;;;6.67;100.00;101838.66;5135137;27;20530;-87
2023/10/17 00:45:47;;;;;;;11.47;4.60;;;;;;;6.67;100.00;101833.28;5117117;27;20033;-87
2023/10/17 00:48:18;;;;;;;8.93;4.90;;;;;;;6.68;100.00;101843.03;5134509;27;20035;-87
2023/10/17 00:50:48;;;;;;;9.02;4.88;;;;;;;6.70;100.00;101842.03;5134342;28;20478;-86
2023/10/17 00:53:15;;;;;;;10.10;5.05;;;;;;;6.71;100.00;101839.16;5134987;28;20031;-87
2023/10/17 00:55:50;;;;;;;8.80;4.82;;;;;;;6.74;100.00;101846.09;5115871;28;20039;-87
2023/10/17 00:58:18;;;;;;;11.67;5.20;;;;;;;6.76;100.00;101847.63;5116510;28;20044;-87
2023/10/17 01:00:49;;;;;;;12.50;5.00;;;;;;;6.80;100.00;101848.13;5116187;28;20035;-87
2023/10/17 01:03:17;;;;;;;9.95;5.47;;;;;;;6.79;100.00;101838.34;5084024;28;20540;-89
2023/10/17 01:08:44;;;;;;;16.58;5.07;;;;;;;6.78;100.00;101842.91;5135141;28;20509;-88
2023/10/17 01:11:16;;;;;;;8.33;4.80;;;;;;;6.79;100.00;101841.03;5116425;28;20032;-87
2023/10/17 01:13:44;;;;;;;10.52;5.72;;;;;;;6.79;100.00;101847.28;5100725;28;20031;-87
2023/10/17 01:16:16;;;;;;;14.43;5.50;;;;;;;6.82;100.00;101855.03;5116006;28;20039;-87
2023/10/17 01:18:45;;;;;;;15.32;6.13;;;;;;;6.82;100.00;101851.50;5116269;28;20504;-87
2023/10/17 01:21:15;;;;;;;9.55;5.65;;;;;;;6.81;100.00;101847.13;5115952;28;20066;-87
2023/10/17 01:23:41;;;;;;;10.77;5.20;;;;;;;6.81;100.00;101845.25;5116249;28;20043;-87
2023/10/17 01:26:14;;;;;;;11.52;5.72;;;;;;;6.82;100.00;101840.69;5115684;28;20038;-87
2023/10/17 01:28:45;;;;;;;10.05;5.30;;;;;;;6.81;100.00;101837.16;5116327;28;20035;-87
2023/10/17 01:31:14;;;;;;;13.32;5.78;;;;;;;6.79;100.00;101824.84;5115810;28;20084;-87
2023/10/17 01:33:43;;;;;;;10.50;5.30;;;;;;;6.80;100.00;101819.28;5116138;28;20130;-87
2023/10/17 01:36:09;;;;;;;10.00;5.32;;;;;;;6.80;100.00;101824.69;5115844;28;20055;-87
2023/10/17 01:38:38;;;;;;;11.38;5.00;;;;;;;6.77;100.00;101830.41;5098782;28;20043;-87
2023/10/17 01:41:07;;;;;;;12.15;5.30;;;;;;;6.75;100.00;101842.41;5116483;28;20085;-87
2023/10/17 01:43:36;;;;;;;11.23;5.15;;;;;;;6.73;100.00;101833.59;5098818;28;20047;-88
2023/10/17 01:46:05;;;;;;;11.17;5.17;;;;;;;6.73;100.00;101829.09;5116785;27;20043;-87
2023/10/17 01:48:31;;;;;;;13.20;5.97;;;;;;;6.73;100.00;101822.81;5119535;27;20483;-87
2023/10/17 01:51:01;;;;;;;12.88;5.57;;;;;;;6.74;100.00;101813.72;5115718;28;20073;-87
2023/10/17 01:53:27;;;;;;;8.38;4.82;;;;;;;6.74;100.00;101808.34;5117607;28;20032;-87
2023/10/17 01:56:06;;;;;;;11.53;4.93;;;;;;;6.73;100.00;101801.25;5116043;28;20043;-87
2023/10/17 01:58:36;;;;;;;11.60;5.13;;;;;;;6.72;100.00;101803.09;5117647;28;20118;-87
2023/10/17 02:01:02;;;;;;;11.10;4.97;;;;;;;6.73;100.00;101806.63;5115917;28;20069;-87
2023/10/17 02:03:29;;;;;;;8.88;4.93;;;;;;;6.71;100.00;101804.09;5116169;28;20035;-87
2023/10/17 02:05:57;;;;;;;10.25;4.90;;;;;;;6.70;100.00;101794.31;5115571;28;20038;-87
2023/10/17 02:08:26;;;;;;;11.03;5.13;;;;;;;6.72;100.00;101789.63;5098727;28;20084;-87
2023/10/17 02:10:56;;;;;;;8.38;5.10;;;;;;;6.70;100.00;101786.22;5115415;28;20031;-87
2023/10/17 02:13:24;;;;;;;10.32;5.60;;;;;;;6.69;100.00;101792.66;5115804;28;20047;-87
2023/10/17 02:15:50;;;;;;;7.70;5.18;;;;;;;6.70;100.00;101785.41;5082530;28;20043;-87
2023/10/17 02:18:20;;;;;;;10.32;4.82;;;;;;;6.68;100.00;101782.88;5115270;28;20039;-87
2023/10/17 02:20:51;;;;;;;9.15;5.13;;;;;;;6.67;100.00;101778.47;5115861;28;20097;-88
2023/10/17 02:23:19;;;;;;;7.22;4.95;;;;;;;6.66;100.00;101774.94;5116532;28;20046;-87
2023/10/17 02:25:50;;;;;;;12.90;5.40;;;;;;;6.65;100.00;101769.72;5117000;28;20044;-87
2023/10/17 02:28:15;;;;;;;8.73;4.95;;;;;;;6.66;100.00;101768.72;5115476;28;20031;-87
2023/10/17 02:30:44;;;;;;;13.27;5.27;;;;;;;6.63;100.00;101774.44;5115567;28;20031;-87
2023/10/17 02:33:19;;;;;;;9.40;5.13;;;;;;;6.60;100.00;101789.09;5115378;28;20157;-87
2023/10/17 02:36:08;;;;;;;7.22;4.88;;;;;;;6.62;100.00;101795.16;5099994;28;20039;-87
2023/10/17 02:38:33;;;;;;;9.10;5.53;;;;;;;6.62;100.00;101780.84;5100729;28;20052;-88
2023/10/17 02:40:59;;;;;;;10.50;5.22;;;;;;;6.60;100.00;101783.72;5098164;28;20483;-87
2023/10/17 02:43:24;;;;;;;9.17;4.90;;;;;;;6.58;100.00;101788.41;5116107;28;20462;-87
2023/10/17 02:45:50;;;;;;;8.07;5.30;;;;;;;6.57;100.00;101786.75;5098113;28;20046;-87
2023/10/17 02:48:27;;;;;;;10.17;5.23;;;;;;;6.57;100.00;101786.75;5114927;28;20543;-87
2023/10/17 02:50:58;;;;;;;11.00;5.10;;;;;;;6.57;100.00;101785.88;5114222;28;20055;-87
2023/10/17 02:53:30;;;;;;;8.85;4.97;;;;;;;6.54;100.00;101784.38;5115019;28;20071;-87
2023/10/17 02:55:57;;;;;;;9.02;5.68;;;;;;;6.50;100.00;101780.31;5114607;28;20035;-87
2023/10/17 02:58:25;;;;;;;10.10;5.40;;;;;;;6.48;100.00;101779.63;5114149;28;20074;-87
2023/10/17 03:00:55;;;;;;;10.83;5.53;;;;;;;6.45;100.00;101775.44;5114787;28;20385;-87
2023/10/17 03:03:22;;;;;;;10.60;5.85;;;;;;;6.45;100.00;101767.34;5115867;28;20067;-87
2023/10/17 03:05:53;;;;;;;11.45;5.88;;;;;;;6.43;100.00;101763.94;5116348;28;20040;-87
2023/10/17 03:08:18;;;;;;;16.52;5.80;;;;;;;6.44;100.00;101772.91;5098222;28;20074;-87
2023/10/17 03:10:47;;;;;;;9.13;5.50;;;;;;;6.42;100.00;101769.50;5115064;28;20067;-87
2023/10/17 03:13:23;;;;;;;8.00;5.60;;;;;;;6.41;100.00;101770.53;5114265;28;20046;-87
2023/10/17 03:16:00;;;;;;;10.75;5.93;;;;;;;6.41;100.00;101776.75;5114835;28;20461;-87
2023/10/17 03:18:37;;;;;;;11.35;6.60;;;;;;;6.42;100.00;101775.75;5115021;28;20036;-87
2023/10/17 03:21:08;;;;;;;14.18;6.57;;;;;;;6.42;100.00;101775.75;5114926;28;20043;-87
2023/10/17 03:23:37;;;;;;;12.10;6.43;;;;;;;6.43;100.00;101772.03;5115373;28;20533;-87
2023/10/17 03:26:06;;;;;;;11.98;6.38;;;;;;;6.41;100.00;101762.44;5114335;28;20035;-87
2023/10/17 03:28:40;;;;;;;13.95;6.03;;;;;;;6.39;100.00;101767.13;5114332;28;20061;-87
2023/10/17 03:31:10;;;;;;;10.77;6.07;;;;;;;6.40;100.00;101776.94;5115533;28;20035;-87
2023/10/17 03:33:40;;;;;;;12.55;6.85;;;;;;;6.43;100.00;101780.13;5132149;27;20071;-87
2023/10/17 03:36:05;;;;;;;13.05;6.63;;;;;;;6.45;100.00;101788.91;5114077;28;20043;-87
2023/10/17 03:38:33;;;;;;;10.77;6.40;;;;;;;6.45;100.00;101786.22;5114100;28;20035;-87
2023/10/17 03:41:06;;;;;;;13.93;7.57;;;;;;;6.47;100.00;101784.19;5114070;28;20042;-88
2023/10/17 03:43:40;;;;;;;13.23;7.25;;;;;;;6.48;100.00;101790.41;5114037;28;20039;-87
2023/10/17 03:46:15;;;;;;;11.30;6.55;;;;;;;6.47;100.00;101783.34;5114241;28;20046;-87
2023/10/17 03:48:49;;;;;;;11.27;7.25;;;;;;;6.48;100.00;101783.19;5113675;28;20047;-87
2023/10/17 03:51:25;;;;;;;11.70;6.72;;;;;;;6.49;100.00;101781.31;5113363;28;20077;-87
2023/10/17 03:53:53;;;;;;;12.73;6.83;;;;;;;6.49;100.00;101784.84;5114630;28;20047;-87
2023/10/17 03:56:24;;;;;;;14.70;7.10;;;;;;;6.52;100.00;101796.31;5113714;28;20039;-87
2023/10/17 03:59:21;;;;;;;11.10;7.05;;;;;;;6.50;100.00;101786.53;5115268;28;20028;-87
2023/10/17 04:01:49;;;;;;;12.43;7.20;;;;;;;6.54;100.00;101794.28;5115268;28;20471;-87
2023/10/17 04:04:18;;;;;;;18.35;7.80;;;;;;;6.52;100.00;101790.94;5113585;28;20071;-87
2023/10/17 04:06:48;;;;;;;17.07;8.07;;;;;;;6.54;100.00;101789.78;5113244;28;20062;-87
2023/10/17 04:09:27;;;;;;;13.43;7.35;;;;;;;6.53;100.00;101790.78;5114570;28;20036;-87
2023/10/17 04:11:55;;;;;;;12.40;7.00;;;;;;;6.49;100.00;101786.72;5113156;28;20035;-87
2023/10/17 04:14:27;;;;;;;15.50;7.72;;;;;;;6.48;100.00;101787.72;5113828;28;20459;-87
2023/10/17 04:16:55;;;;;;;14.48;8.10;;;;;;;6.47;100.00;101784.19;5097432;28;20059;-87
2023/10/17 04:19:23;;;;;;;14.63;7.73;;;;;;;6.44;100.00;101776.44;5113200;28;20040;-87
2023/10/17 04:21:51;;;;;;;15.52;7.70;;;;;;;6.47;100.00;101784.19;5112984;28;20088;-87
2023/10/17 04:24:34;;;;;;;15.90;8.07;;;;;;;6.45;100.00;101783.53;5113264;28;20031;-87
2023/10/17 04:29:44;;;;;;;16.73;8.88;;;;;;;6.45;100.00;101791.59;5114471;28;20070;-87
2023/10/17 04:32:13;;;;;;;18.30;8.83;;;;;;;6.48;100.00;101785.00;5113035;28;20036;-87
2023/10/17 04:34:48;;;;;;;17.95;8.52;;;;;;;6.49;100.00;101787.53;5113031;28;20036;-87
2023/10/17 04:37:37;;;;;;;15.10;8.48;;;;;;;6.49;100.00;101787.53;5113336;28;20035;-87
2023/10/17 04:45:23;;;;;;;16.00;8.40;;;;;;;6.43;100.00;101793.59;5114301;28;20089;-87
2023/10/17 04:48:09;;;;;;;15.63;8.57;;;;;;;6.44;100.00;101795.28;5113244;28;20043;-87
2023/10/17 04:50:56;;;;;;;17.27;8.55;;;;;;;6.46;100.00;101798.66;5112517;28;20096;-87
2023/10/17 04:53:27;;;;;;;16.35;8.60;;;;;;;6.47;100.00;101792.28;5112863;28;20031;-87
2023/10/17 05:01:36;;;;;;;17.60;8.50;;;;;;;6.48;100.00;101782.31;5071214;28;20047;-87
2023/10/17 05:04:17;;;;;;;20.45;8.95;;;;;;;6.48;100.00;101787.72;5097406;28;20032;-87
2023/10/17 06:18:49;;;;;;;19.25;10.43;;;;;;;6.35;100.00;101757.69;5116297;28;20046;-87
2023/10/17 06:21:38;;;;;;;22.10;10.93;;;;;;;6.34;100.00;101762.25;5115551;28;20471;-87
2023/10/17 06:24:46;;;;;;;20.42;10.07;;;;;;;6.39;100.00;101767.13;5101556;28;20040;-87
2023/10/17 06:27:11;;;;;;;17.35;10.38;;;;;;;6.43;100.00;101773.91;5105434;28;20069;-87
2023/10/17 06:32:16;;;;;;;20.40;11.17;;;;;;;6.51;100.00;101773.94;5115832;28;20387;-87
2023/10/17 06:34:47;;;;;;;19.75;10.73;;;;;;;6.55;100.00;101767.16;5116836;28;20089;-87
2023/10/17 06:37:28;;;;;;;21.20;10.77;;;;;;;6.59;100.00;101768.53;5114806;28;20039;-87
2023/10/17 06:40:00;;;;;;;18.60;10.43;;;;;;;6.62;100.00;101764.66;5101610;28;20047;-86
2023/10/17 06:42:39;;;;;;;25.05;10.80;;;;;;;6.64;100.00;101770.72;5115183;28;20050;-87
2023/10/17 06:45:16;;;;;;;20.08;11.20;;;;;;;6.68;100.00;101772.91;5114800;28;20490;-87
2023/10/17 06:47:50;;;;;;;21.15;11.77;;;;;;;6.71;100.00;101776.31;5116098;28;20035;-87
2023/10/17 06:53:02;;;;;;;20.52;10.73;;;;;;;6.79;100.00;101779.84;5137086;27;20046;-87
2023/10/17 06:55:28;;;;;;;19.87;10.93;;;;;;;6.84;100.00;101782.03;5136975;27;20035;-87
2023/10/17 06:58:08;;;;;;;22.17;11.23;;;;;;;6.88;100.00;101787.94;5100958;27;20559;-87
2023/10/17 07:00:51;;;;;;;21.25;10.90;;;;;;;6.91;100.00;101788.47;5117334;27;20499;-87
2023/10/17 07:03:26;;;;;;;19.33;10.90;;;;;;;6.95;100.00;101797.03;5118462;27;20485;-87
2023/10/17 07:05:55;;;;;;;20.95;10.85;;;;;;;7.00;100.00;101794.72;5118503;27;20039;-87
2023/10/17 07:08:21;;;;;;;17.30;10.77;;;;;;;7.03;100.00;101788.97;5137345;27;20459;-87
2023/10/17 07:11:52;;;;;;;19.43;10.67;;;;;;;7.06;100.00;101782.38;5117698;27;20100;-87
2023/10/17 07:16:35;;;;;;;20.52;10.90;;;;;;;7.14;100.00;101777.81;5136423;27;20382;-87
2023/10/17 07:24:29;;;;;;;17.23;10.43;;;;;;;7.28;100.00;101767.34;5136148;27;20426;-87
2023/10/17 07:27:05;;;;;;;21.50;10.18;;;;;;;7.33;100.00;101764.97;5117457;27;20448;-87
2023/10/17 07:29:45;;;;;;;16.27;10.48;;;;;;;7.43;100.00;101759.41;5117993;27;20046;-87
2023/10/17 07:32:16;;;;;;;18.35;10.68;;;;;;;7.53;100.00;101760.88;5136093;27;20028;-87
2023/10/17 07:34:43;;;;;;;15.27;10.23;;;;;;;7.63;100.00;101767.94;5117766;27;20063;-87
2023/10/17 07:39:39;;;;;;;21.85;10.77;;;;;;;7.77;100.00;101779.91;5117935;27;20501;-87
2023/10/17 07:42:14;;;;;;;17.90;9.93;;;;;;;7.83;100.00;101787.31;5135753;27;20039;-87
2023/10/17 07:44:42;;;;;;;19.45;9.35;;;;;;;7.88;100.00;101777.66;5117343;27;20087;-88
2023/10/17 07:47:08;;;;;;;15.73;8.85;;;;;;;7.92;100.00;101777.31;5135393;27;20092;-87
2023/10/17 07:49:35;;;;;;;16.30;8.70;;;;;;;7.95;100.00;101772.38;5117237;27;20387;-87
2023/10/17 07:52:10;;;;;;;15.07;9.02;;;;;;;7.98;100.00;101780.13;5117082;27;20039;-87
2023/10/17 07:54:45;;;;;;;16.90;9.20;;;;;;;7.96;100.00;101775.91;5117371;27;20035;-87
2023/10/17 07:57:18;;;;;;;14.68;8.32;;;;;;;7.91;100.00;101781.84;5135669;27;20035;-88
2023/10/17 07:59:50;;;;;;;13.38;8.80;;;;;;;7.83;100.00;101782.72;5117148;27;20043;-88
2023/10/17 08:02:19;;;;;;;13.38;8.50;;;;;;;7.76;100.00;101770.94;5100656;27;20061;-87
2023/10/17 08:05:00;;;;;;;;;;;;;;;;;;;;;
2023/10/17 08:07:29;;;;;;;14.45;8.85;;;;;;;7.68;100.00;101770.97;5119535;27;20065;-87
2023/10/17 08:09:57;;;;;;;12.27;8.02;;;;;;;7.65;100.00;101766.75;5117078;27;20039;-87
2023/10/17 08:12:29;;;;;;;13.73;8.35;;;;;;;7.62;100.00;101761.72;5116450;27;20039;-87
2023/10/17 08:14:58;;;;;;;16.80;8.05;;;;;;;7.65;100.00;101764.06;5135561;27;20032;-87
2023/10/17 08:17:34;;;;;;;20.75;9.30;;;;;;;7.70;100.00;101766.22;5116623;27;20031;-87
2023/10/17 08:20:00;;;;;;;13.52;9.45;;;;;;;7.72;100.00;101759.66;5102346;27;20485;-87
2023/10/17 08:23:07;;;;;;;11.32;8.05;;;;;;;7.74;100.00;101756.78;5135271;27;20041;-87
2023/10/17 08:25:30;;;;;;;12.30;8.25;;;;;;;7.77;100.00;101766.41;5128199;27;20047;-87
2023/10/17 08:28:05;;;;;;;13.77;8.27;;;;;;;7.79;100.00;101761.66;5117817;27;20043;-87
2023/10/17 08:30:38;;;;;;;12.27;7.47;;;;;;;7.79;100.00;101765.19;5115992;27;20042;-87
2023/10/17 08:38:24;;;;;;;16.92;7.53;;;;;;;7.92;100.00;101761.09;5134793;27;20486;-87
2023/10/17 08:40:54;;;;;;;12.85;7.18;;;;;;;7.95;100.00;101755.34;5116200;27;20096;-86
2023/10/17 08:43:20;;;;;;;10.13;6.93;;;;;;;8.00;100.00;101750.22;5134628;27;20039;-87
2023/10/17 08:45:49;;;;;;;10.43;7.03;;;;;;;8.04;100.00;101754.28;5115564;28;20100;-87
2023/10/17 08:48:15;;;;;;;10.65;7.13;;;;;;;8.10;100.00;101755.44;5116531;27;20065;-87
2023/10/17 08:50:43;;;;;;;13.07;7.38;;;;;;;8.15;100.00;101753.03;5095252;28;20055;-87
2023/10/17 08:53:13;;;;;;;10.50;6.15;;;;;;;8.23;100.00;101758.41;5113434;28;20044;-87
2023/10/17 08:55:48;;;;;;;10.40;6.82;;;;;;;8.26;100.00;101766.16;5113198;28;20110;-87
2023/10/17 08:58:33;;;;;;;10.05;6.55;;;;;;;8.33;100.00;101766.31;5113024;28;20112;-87
2023/10/17 09:01:10;;;;;;;8.65;5.70;;;;;;;8.42;100.00;101765.22;5113046;28;20479;-87
2023/10/17 09:03:56;;;;;;;10.07;5.53;;;;;;;8.49;100.00;101763.53;5114334;28;20031;-87
2023/10/17 09:08:55;;;;;;;7.32;5.40;;;;;;;8.62;100.00;101770.19;5113910;28;20480;-87
2023/10/17 09:14:50;;;;;;;8.73;4.97;;;;;;;8.69;100.00;101763.03;5111634;28;20493;-87
2023/10/17 09:19:56;;;;;;;7.60;5.03;;;;;;;8.81;100.00;101758.03;5113896;28;20047;-87
2023/10/17 09:22:22;;;;;;;10.30;5.07;;;;;;;8.83;100.00;101750.56;5112877;28;20039;-87
2023/10/17 09:24:50;;;;;;;10.40;5.60;;;;;;;8.88;100.00;101753.59;5112975;28;20039;-87
2023/10/17 09:27:18;;;;;;;9.65;5.10;;;;;;;8.94;100.00;101759.09;5113804;28;20028;-87
2023/10/17 09:29:47;;;;;;;7.57;5.07;;;;;;;9.00;100.00;101759.41;5112549;28;20035;-87
2023/10/17 09:32:32;;;;;;;8.45;5.18;;;;;;;9.06;100.00;101753.25;5112316;28;20082;-87
2023/10/17 09:35:16;;;;;;;5.93;4.53;;;;;;;9.14;100.00;101755.91;5112803;28;20039;-87
2023/10/17 09:37:50;;;;;;;10.95;5.43;;;;;;;9.22;100.00;101757.69;5112783;28;20487;-87
2023/10/17 09:40:33;;;;;;;7.07;4.57;;;;;;;9.30;100.00;101752.16;5112397;28;20392;-87
2023/10/17 09:43:01;;;;;;;6.85;4.40;;;;;;;9.38;100.00;101759.41;5112697;28;20047;-87
2023/10/17 09:45:41;;;;;;;8.90;6.00;;;;;;;9.47;100.00;101760.97;5112043;28;20112;-87
2023/10/17 09:48:13;;;;;;;7.93;4.03;;;;;;;9.55;100.00;101754.63;5112353;28;20055;-88
2023/10/17 09:50:45;;;;;;;5.68;4.00;;;;;;;9.62;100.00;101756.41;5112188;28;20134;-87
2023/10/17 09:53:30;;;;;;;9.30;3.78;;;;;;;9.73;100.00;101743.41;5112643;28;20036;-87
2023/10/17 09:56:00;;;;;;;8.00;4.07;;;;;;;9.79;100.00;101756.22;5097389;28;20043;-87
2023/10/17 09:58:29;;;;;;;7.30;3.72;;;;;;;9.87;100.00;101756.13;5112035;28;20367;-87
2023/10/17 10:01:05;;;;;;;8.20;4.10;;;;;;;9.96;100.00;101767.69;5111953;28;20031;-87
2023/10/17 10:03:35;;;;;;;5.80;3.60;;;;;;;10.07;100.00;101760.94;5113009;28;20048;-88
2023/10/17 10:06:21;;;;;;;6.82;3.38;;;;;;;10.15;100.00;101753.53;5112295;28;20042;-87
2023/10/17 10:08:47;;;;;;;5.55;3.42;;;;;;;10.26;100.00;101764.94;5115137;28;20052;-87
2023/10/17 10:11:15;;;;;;;5.55;3.47;;;;;;;10.38;100.00;101759.88;5116238;28;20036;-87
2023/10/17 10:14:04;;;;;;;5.03;3.17;;;;;;;10.49;100.00;101764.81;5116660;28;20039;-87
2023/10/17 10:16:55;;;;;;;9.45;3.78;;;;;;;10.60;98.81;101760.72;5115986;28;20028;-87
2023/10/17 10:19:27;;;;;;;4.72;3.20;;;;;;;10.70;97.12;101750.41;5116001;28;20031;-87
2023/10/17 10:22:00;;;;;;;6.68;3.05;;;;;;;10.80;95.19;101740.06;5116150;28;20151;-87
2023/10/17 10:24:32;;;;;;;5.10;3.05;;;;;;;10.93;94.54;101746.66;5115526;28;20032;-87
2023/10/17 10:27:11;;;;;;;4.13;3.00;;;;;;;11.05;94.48;101743.19;5116802;28;20036;-87
2023/10/17 10:29:37;;;;;;;5.45;2.85;;;;;;;11.14;90.59;101737.63;5115401;28;20057;-87
2023/10/17 10:32:06;;;;;;;5.72;3.10;;;;;;;11.23;89.48;101739.16;5115677;28;20066;-87
2023/10/17 10:34:37;;;;;;;5.45;2.80;;;;;;;11.39;90.31;101732.56;5115277;28;20121;-87
2023/10/17 10:37:03;;;;;;;5.25;2.80;;;;;;;11.53;89.49;101730.75;5115547;28;20075;-87
2023/10/17 10:39:30;;;;;;;7.70;3.13;;;;;;;11.71;88.79;101728.38;5115029;28;20407;-87
2023/10/17 10:41:59;;;;;;;7.05;2.30;;;;;;;11.91;86.85;101722.19;5116554;28;20054;-87
2023/10/17 10:44:27;;;;;;;10.98;3.10;;;;;;;12.15;84.62;101720.00;5115634;28;20044;-87
2023/10/17 10:46:54;;;;;;;3.80;2.40;;;;;;;12.37;83.07;101718.81;5115286;28;20073;-87
2023/10/17 10:49:34;;;;;;;6.88;2.95;;;;;;;12.61;83.72;101714.66;5114911;28;20050;-87
2023/10/17 10:51:59;;;;;;;4.07;2.10;;;;;;;12.88;79.71;101708.38;5098961;28;20044;-87
2023/10/17 10:54:59;;;;;;;4.70;2.58;;;;;;;13.36;81.76;101710.03;5115787;28;20131;-87
2023/10/17 10:57:33;;;;;;;4.93;2.90;;;;;;;15.29;75.19;101699.00;5116392;28;20036;-86
2023/10/17 11:00:00;;;;;;;6.67;2.50;;;;;;;18.63;67.72;101690.59;5116186;28;20042;-87
2023/10/17 11:02:35;;;;;;;4.30;2.53;;;;;;;21.94;55.19;101690.94;5114746;28;20035;-87
2023/10/17 11:05:04;;;;;;;4.53;2.40;;;;;;;23.85;46.72;101682.47;5114665;28;20127;-87
2023/10/17 11:07:31;;;;;;;5.15;2.30;;;;;;;25.93;39.49;101681.97;5114257;28;20035;-87
2023/10/17 11:10:06;;;;;;;7.43;2.20;;;;;;;27.76;39.20;101688.53;5115716;27;20039;-88
2023/10/17 11:12:35;;;;;;;5.10;2.70;;;;;;;28.81;31.22;101681.06;5114680;28;20040;-87
2023/10/17 11:15:28;;;;;;;;;;;;;;;;;;;;;
2023/10/17 11:18:06;;;;;;;3.15;2.28;;;;;;;31.08;30.49;101677.75;5116869;28;20046;-87
2023/10/17 11:20:35;;;;;;;4.03;2.00;;;;;;;31.72;26.48;101665.56;5113457;28;20118;-87
2023/10/17 11:23:04;;;;;;;4.43;2.60;;;;;;;32.49;24.91;101665.25;5114243;28;20043;-87
2023/10/17 11:25:31;;;;;;;4.63;2.37;;;;;;;33.52;23.30;101646.66;5115417;28;20490;-87
2023/10/17 11:28:00;;;;;;;3.92;2.30;;;;;;;33.97;22.37;101642.00;5115931;28;20039;-87
2023/10/17 11:30:35;;;;;;;4.13;2.78;;;;;;;34.82;21.26;101646.78;5099998;28;20040;-86
2023/10/17 11:33:04;;;;;;;3.03;2.50;;;;;;;35.94;20.31;101638.97;5115799;28;20105;-87
2023/10/17 11:35:30;;;;;;;7.97;2.60;;;;;;;36.10;18.83;101628.41;5114455;28;20088;-87
2023/10/17 11:38:01;;;;;;;3.60;2.50;;;;;;;36.26;18.96;101624.66;5098743;28;20062;-87
2023/10/17 11:40:44;;;;;;;4.78;2.70;;;;;;;36.01;20.77;101619.34;5115996;28;20093;-87
2023/10/17 11:43:18;;;;;;;4.18;2.83;;;;;;;35.57;20.27;101619.59;5114807;28;20067;-87
2023/10/17 11:45:44;;;;;;;5.30;3.00;;;;;;;34.99;18.07;101614.59;5114487;28;20184;-87
2023/10/17 11:48:45;;;;;;;3.97;2.80;;;;;;;35.91;21.82;101609.47;5113925;28;20036;-87
2023/10/17 11:51:17;;;;;;;3.97;2.60;;;;;;;36.50;18.43;101607.41;5081566;28;20074;-87
2023/10/17 11:54:10;;;;;;;4.80;2.63;;;;;;;35.86;18.93;101604.09;5113654;28;20078;-87
2023/10/17 11:56:38;;;;;;;3.20;2.90;;;;;;;35.99;17.77;101608.41;5115613;27;20088;-87
2023/10/17 11:59:07;;;;;;;6.13;2.70;;;;;;;37.87;16.48;101612.38;5114716;28;20449;-87
2023/10/17 12:01:33;;;;;;;3.60;2.83;;;;;;;39.50;15.02;101622.38;5114813;28;20039;-88
2023/10/17 12:04:00;;;;;;;6.53;2.90;;;;;;;40.80;14.62;101624.38;5097011;28;20454;-87
2023/10/17 12:06:26;;;;;;;4.18;3.30;;;;;;;42.53;13.51;101612.38;5113676;28;20040;-87
2023/10/17 12:08:53;;;;;;;3.30;3.00;;;;;;;42.78;12.93;101611.41;5113660;28;20035;-87
2023/10/17 12:11:19;;;;;;;3.20;2.95;;;;;;;42.73;12.52;101601.25;5115158;28;20081;-87
2023/10/17 12:13:46;;;;;;;3.73;2.73;;;;;;;41.41;12.78;101585.72;5113723;28;20039;-87
2023/10/17 12:16:14;;;;;;;3.47;3.17;;;;;;;40.25;13.40;101571.53;5114923;28;20496;-87
2023/10/17 12:18:43;;;;;;;3.75;3.25;;;;;;;40.15;13.75;101563.81;5113385;28;20048;-88
2023/10/17 12:21:14;;;;;;;3.67;3.17;;;;;;;38.65;14.61;101561.75;5114612;28;20490;-86
2023/10/17 12:23:42;;;;;;;4.40;3.30;;;;;;;38.28;15.30;101559.81;5113545;28;20460;-85
2023/10/17 12:26:13;;;;;;;3.60;3.30;;;;;;;38.34;15.47;101555.41;5112970;28;20035;-86
2023/10/17 12:28:44;;;;;;;3.70;3.40;;;;;;;37.81;16.24;101547.97;5113667;28;20050;-86
2023/10/17 12:31:16;;;;;;;4.03;3.45;;;;;;;39.02;15.66;101546.66;5114298;28;20192;-85
2023/10/17 12:33:43;;;;;;;13.00;4.05;;;;;;;40.17;14.75;101536.63;5113102;28;20067;-86
2023/10/17 12:36:09;;;;;;;5.10;3.67;;;;;;;41.37;13.45;101526.75;5114407;28;20031;-85
2023/10/17 12:38:38;;;;;;;5.13;3.73;;;;;;;42.34;13.29;101525.38;5112674;28;20042;-85
2023/10/17 12:41:06;;;;;;;4.43;3.80;;;;;;;42.04;12.96;101511.75;5097504;28;20050;-85
2023/10/17 12:43:34;;;;;;;6.22;4.30;;;;;;;43.26;12.44;101507.75;5112959;28;20031;-85
2023/10/17 12:46:00;;;;;;;5.20;4.03;;;;;;;43.69;12.44;101494.97;5113664;28;20126;-86
2023/10/17 12:48:28;;;;;;;4.20;3.90;;;;;;;44.67;11.81;101489.28;5096114;28;20035;-85
2023/10/17 12:50:54;;;;;;;4.80;4.28;;;;;;;44.92;11.20;101490.03;5095374;28;20058;-86
2023/10/17 12:53:19;;;;;;;5.95;4.47;;;;;;;44.55;11.35;101489.91;5095587;28;20079;-86
2023/10/17 12:55:45;;;;;;;6.10;4.30;;;;;;;43.12;11.82;101479.38;5112694;28;20039;-86
2023/10/17 12:58:10;;;;;;;5.20;4.10;;;;;;;42.72;11.85;101476.16;5113811;28;20480;-85
2023/10/17 13:00:48;;;;;;;4.85;4.40;;;;;;;43.49;13.38;101471.97;5112728;28;20084;-86
2023/10/17 13:03:17;;;;;;;4.78;4.38;;;;;;;42.55;12.41;101473.06;5114440;28;20097;-85
2023/10/17 13:05:43;;;;;;;5.53;4.70;;;;;;;43.63;11.65;101468.91;5114525;28;20036;-86
2023/10/17 13:08:08;;;;;;;5.38;4.60;;;;;;;43.61;11.51;101470.59;5112459;28;20031;-86
2023/10/17 13:10:34;;;;;;;5.67;4.50;;;;;;;42.38;12.01;101466.28;5095588;28;20537;-86
2023/10/17 13:12:59;;;;;;;5.95;4.25;;;;;;;42.23;12.16;101450.56;5112842;28;20031;-86
2023/10/17 13:15:25;;;;;;;5.07;4.13;;;;;;;40.14;13.08;101455.00;5112823;28;20464;-85
2023/10/17 13:17:55;;;;;;;5.15;4.53;;;;;;;39.70;13.69;101453.34;5129760;28;20066;-86
2023/10/17 13:20:32;;;;;;;4.57;4.18;;;;;;;39.56;14.08;101451.28;5112242;28;20046;-86
2023/10/17 13:23:04;;;;;;;6.43;4.53;;;;;;;39.62;13.93;101454.53;5112295;28;20035;-86
2023/10/17 13:25:36;;;;;;;7.72;4.43;;;;;;;40.36;14.37;101451.34;5113574;28;20039;-86
2023/10/17 13:28:05;;;;;;;5.45;4.40;;;;;;;39.37;14.30;101449.56;5111976;28;20040;-86
2023/10/17 13:30:33;;;;;;;5.10;4.57;;;;;;;39.90;13.88;101459.44;5112323;28;20040;-86
2023/10/17 13:32:59;;;;;;;6.15;4.32;;;;;;;38.82;14.47;101450.53;5112277;28;20055;-86
2023/10/17 13:35:25;;;;;;;4.30;3.90;;;;;;;38.18;14.79;101450.81;5095496;28;20028;-87
2023/10/17 13:37:55;;;;;;;4.80;4.23;;;;;;;38.22;15.15;101441.16;5113425;28;20036;-85
2023/10/17 13:40:25;;;;;;;4.72;4.30;;;;;;;39.01;15.00;101437.22;5112796;28;20039;-86
2023/10/17 13:42:53;;;;;;;5.03;4.07;;;;;;;39.84;14.24;101438.34;5114429;28;20036;-86
2023/10/17 13:45:27;;;;;;;5.20;4.05;;;;;;;39.78;14.26;101431.44;5099320;28;20138;-87